sensor_id;sensor_type;location;lat;lon;timestamp;P1;durP1;ratioP1;P2;durP2;ratioP2
17347;SDS011;8791;50.876;4.342;2024-03-22T00:00:42;56.53;;;30.30;;
17347;SDS011;8791;50.876;4.342;2024-03-22T00:03:08;54.27;;;30.20;;
17347;SDS011;8791;50.876;4.342;2024-03-22T00:05:34;53.63;;;30.57;;
17347;SDS011;8791;50.876;4.342;2024-03-22T00:08:01;54.67;;;30.27;;
17347;SDS011;8791;50.876;4.342;2024-03-22T00:10:27;55.47;;;29.13;;
17347;SDS011;8791;50.876;4.342;2024-03-22T00:12:54;59.70;;;29.80;;
17347;SDS011;8791;50.876;4.342;2024-03-22T00:15:20;50.37;;;28.77;;
17347;SDS011;8791;50.876;4.342;2024-03-22T00:17:48;54.40;;;29.20;;
17347;SDS011;8791;50.876;4.342;2024-03-22T00:20:14;46.07;;;27.03;;
17347;SDS011;8791;50.876;4.342;2024-03-22T00:22:41;48.53;;;28.47;;
17347;SDS011;8791;50.876;4.342;2024-03-22T00:25:07;49.27;;;28.03;;
17347;SDS011;8791;50.876;4.342;2024-03-22T00:27:34;42.47;;;27.23;;
17347;SDS011;8791;50.876;4.342;2024-03-22T00:30:00;51.67;;;27.63;;
17347;SDS011;8791;50.876;4.342;2024-03-22T00:32:27;45.10;;;27.13;;
17347;SDS011;8791;50.876;4.342;2024-03-22T00:34:54;46.03;;;27.30;;
17347;SDS011;8791;50.876;4.342;2024-03-22T00:37:21;47.77;;;28.57;;
17347;SDS011;8791;50.876;4.342;2024-03-22T00:39:47;47.40;;;27.07;;
17347;SDS011;8791;50.876;4.342;2024-03-22T00:42:14;41.17;;;26.23;;
17347;SDS011;8791;50.876;4.342;2024-03-22T00:44:40;48.00;;;27.97;;
17347;SDS011;8791;50.876;4.342;2024-03-22T00:47:07;50.17;;;27.43;;
17347;SDS011;8791;50.876;4.342;2024-03-22T00:49:33;51.63;;;27.93;;
17347;SDS011;8791;50.876;4.342;2024-03-22T00:52:01;47.07;;;28.10;;
17347;SDS011;8791;50.876;4.342;2024-03-22T00:54:27;43.60;;;27.17;;
17347;SDS011;8791;50.876;4.342;2024-03-22T00:56:54;45.27;;;27.73;;
17347;SDS011;8791;50.876;4.342;2024-03-22T00:59:20;53.93;;;28.47;;
17347;SDS011;8791;50.876;4.342;2024-03-22T01:01:47;47.73;;;27.53;;
17347;SDS011;8791;50.876;4.342;2024-03-22T01:04:13;49.80;;;26.73;;
17347;SDS011;8791;50.876;4.342;2024-03-22T01:06:40;55.00;;;28.47;;
17347;SDS011;8791;50.876;4.342;2024-03-22T01:09:07;51.23;;;29.17;;
17347;SDS011;8791;50.876;4.342;2024-03-22T01:11:34;52.77;;;28.37;;
17347;SDS011;8791;50.876;4.342;2024-03-22T01:14:00;49.20;;;28.23;;
17347;SDS011;8791;50.876;4.342;2024-03-22T01:16:27;50.60;;;28.17;;
17347;SDS011;8791;50.876;4.342;2024-03-22T01:18:53;50.50;;;28.70;;
17347;SDS011;8791;50.876;4.342;2024-03-22T01:21:20;51.43;;;28.10;;
17347;SDS011;8791;50.876;4.342;2024-03-22T01:23:50;47.30;;;26.97;;
17347;SDS011;8791;50.876;4.342;2024-03-22T01:26:18;46.13;;;27.70;;
17347;SDS011;8791;50.876;4.342;2024-03-22T01:28:44;51.83;;;28.00;;
17347;SDS011;8791;50.876;4.342;2024-03-22T01:31:12;51.67;;;29.07;;
17347;SDS011;8791;50.876;4.342;2024-03-22T01:33:38;51.17;;;26.67;;
17347;SDS011;8791;50.876;4.342;2024-03-22T01:36:05;54.80;;;26.37;;
17347;SDS011;8791;50.876;4.342;2024-03-22T01:38:31;49.07;;;27.53;;
17347;SDS011;8791;50.876;4.342;2024-03-22T01:40:58;50.13;;;27.70;;
17347;SDS011;8791;50.876;4.342;2024-03-22T01:43:25;51.97;;;27.13;;
17347;SDS011;8791;50.876;4.342;2024-03-22T01:45:52;48.70;;;26.47;;
17347;SDS011;8791;50.876;4.342;2024-03-22T01:48:18;49.13;;;28.17;;
17347;SDS011;8791;50.876;4.342;2024-03-22T01:50:46;46.43;;;25.03;;
17347;SDS011;8791;50.876;4.342;2024-03-22T01:53:12;40.90;;;24.03;;
17347;SDS011;8791;50.876;4.342;2024-03-22T01:55:39;45.70;;;25.23;;
17347;SDS011;8791;50.876;4.342;2024-03-22T01:58:05;43.50;;;25.00;;
17347;SDS011;8791;50.876;4.342;2024-03-22T02:00:34;56.17;;;26.77;;
17347;SDS011;8791;50.876;4.342;2024-03-22T02:03:00;42.60;;;24.20;;
17347;SDS011;8791;50.876;4.342;2024-03-22T02:05:27;44.73;;;24.50;;
17347;SDS011;8791;50.876;4.342;2024-03-22T02:07:53;44.00;;;23.60;;
17347;SDS011;8791;50.876;4.342;2024-03-22T02:10:20;43.20;;;25.23;;
17347;SDS011;8791;50.876;4.342;2024-03-22T02:12:46;45.50;;;24.87;;
17347;SDS011;8791;50.876;4.342;2024-03-22T02:15:13;44.30;;;24.40;;
17347;SDS011;8791;50.876;4.342;2024-03-22T02:17:41;44.47;;;24.23;;
17347;SDS011;8791;50.876;4.342;2024-03-22T02:20:08;43.77;;;24.70;;
17347;SDS011;8791;50.876;4.342;2024-03-22T02:22:35;41.53;;;24.07;;
17347;SDS011;8791;50.876;4.342;2024-03-22T02:25:03;42.00;;;23.33;;
17347;SDS011;8791;50.876;4.342;2024-03-22T02:27:30;43.90;;;25.50;;
17347;SDS011;8791;50.876;4.342;2024-03-22T02:29:56;43.63;;;22.90;;
17347;SDS011;8791;50.876;4.342;2024-03-22T02:32:22;42.43;;;23.07;;
17347;SDS011;8791;50.876;4.342;2024-03-22T02:34:49;40.93;;;24.17;;
17347;SDS011;8791;50.876;4.342;2024-03-22T02:37:15;45.17;;;22.63;;
17347;SDS011;8791;50.876;4.342;2024-03-22T02:39:42;36.43;;;22.20;;
17347;SDS011;8791;50.876;4.342;2024-03-22T02:42:09;43.50;;;22.83;;
17347;SDS011;8791;50.876;4.342;2024-03-22T02:44:36;43.27;;;24.00;;
17347;SDS011;8791;50.876;4.342;2024-03-22T02:47:07;40.07;;;22.30;;
17347;SDS011;8791;50.876;4.342;2024-03-22T02:49:34;42.47;;;22.73;;
17347;SDS011;8791;50.876;4.342;2024-03-22T02:52:00;41.60;;;23.67;;
17347;SDS011;8791;50.876;4.342;2024-03-22T02:54:27;40.57;;;22.83;;
17347;SDS011;8791;50.876;4.342;2024-03-22T02:56:53;44.10;;;23.03;;
17347;SDS011;8791;50.876;4.342;2024-03-22T02:59:21;36.83;;;21.97;;
17347;SDS011;8791;50.876;4.342;2024-03-22T03:01:50;39.07;;;22.27;;
17347;SDS011;8791;50.876;4.342;2024-03-22T03:04:17;40.20;;;21.03;;
17347;SDS011;8791;50.876;4.342;2024-03-22T03:06:43;45.10;;;23.03;;
17347;SDS011;8791;50.876;4.342;2024-03-22T03:09:10;43.67;;;22.20;;
17347;SDS011;8791;50.876;4.342;2024-03-22T03:11:38;44.10;;;21.73;;
17347;SDS011;8791;50.876;4.342;2024-03-22T03:14:05;43.67;;;21.57;;
17347;SDS011;8791;50.876;4.342;2024-03-22T03:16:32;38.20;;;21.20;;
17347;SDS011;8791;50.876;4.342;2024-03-22T03:18:59;39.10;;;22.10;;
17347;SDS011;8791;50.876;4.342;2024-03-22T03:21:25;40.13;;;20.27;;
17347;SDS011;8791;50.876;4.342;2024-03-22T03:23:52;34.87;;;21.10;;
17347;SDS011;8791;50.876;4.342;2024-03-22T03:26:18;42.63;;;21.87;;
17347;SDS011;8791;50.876;4.342;2024-03-22T03:28:45;38.90;;;20.93;;
17347;SDS011;8791;50.876;4.342;2024-03-22T03:31:11;37.30;;;20.50;;
17347;SDS011;8791;50.876;4.342;2024-03-22T03:33:39;43.60;;;20.63;;
17347;SDS011;8791;50.876;4.342;2024-03-22T03:36:05;32.83;;;19.87;;
17347;SDS011;8791;50.876;4.342;2024-03-22T03:38:32;38.27;;;19.83;;
17347;SDS011;8791;50.876;4.342;2024-03-22T03:40:58;34.53;;;19.43;;
17347;SDS011;8791;50.876;4.342;2024-03-22T03:43:25;34.97;;;19.27;;
17347;SDS011;8791;50.876;4.342;2024-03-22T03:45:51;38.83;;;19.03;;
17347;SDS011;8791;50.876;4.342;2024-03-22T03:48:19;30.27;;;18.07;;
17347;SDS011;8791;50.876;4.342;2024-03-22T03:50:52;38.17;;;19.53;;
17347;SDS011;8791;50.876;4.342;2024-03-22T03:53:19;35.53;;;18.77;;
17347;SDS011;8791;50.876;4.342;2024-03-22T03:55:45;33.90;;;18.30;;
17347;SDS011;8791;50.876;4.342;2024-03-22T03:58:12;35.77;;;19.57;;
17347;SDS011;8791;50.876;4.342;2024-03-22T04:00:38;34.47;;;19.57;;
17347;SDS011;8791;50.876;4.342;2024-03-22T04:03:05;35.90;;;19.07;;
17347;SDS011;8791;50.876;4.342;2024-03-22T04:05:31;36.30;;;18.60;;
17347;SDS011;8791;50.876;4.342;2024-03-22T04:07:59;32.00;;;18.53;;
17347;SDS011;8791;50.876;4.342;2024-03-22T04:10:25;30.03;;;17.90;;
17347;SDS011;8791;50.876;4.342;2024-03-22T04:12:52;33.77;;;17.67;;
17347;SDS011;8791;50.876;4.342;2024-03-22T04:15:18;30.13;;;17.23;;
17347;SDS011;8791;50.876;4.342;2024-03-22T04:17:45;28.93;;;17.43;;
17347;SDS011;8791;50.876;4.342;2024-03-22T04:20:11;41.53;;;18.07;;
17347;SDS011;8791;50.876;4.342;2024-03-22T04:22:38;29.53;;;18.70;;
17347;SDS011;8791;50.876;4.342;2024-03-22T04:25:06;31.33;;;17.50;;
17347;SDS011;8791;50.876;4.342;2024-03-22T04:27:35;37.23;;;18.60;;
17347;SDS011;8791;50.876;4.342;2024-03-22T04:30:01;32.43;;;18.10;;
17347;SDS011;8791;50.876;4.342;2024-03-22T04:32:28;31.50;;;17.73;;
17347;SDS011;8791;50.876;4.342;2024-03-22T04:34:54;32.07;;;18.73;;
17347;SDS011;8791;50.876;4.342;2024-03-22T04:37:21;32.20;;;17.83;;
17347;SDS011;8791;50.876;4.342;2024-03-22T04:39:48;35.57;;;17.00;;
17347;SDS011;8791;50.876;4.342;2024-03-22T04:42:17;30.07;;;18.20;;
17347;SDS011;8791;50.876;4.342;2024-03-22T04:44:44;27.73;;;16.90;;
17347;SDS011;8791;50.876;4.342;2024-03-22T04:47:11;33.27;;;17.83;;
17347;SDS011;8791;50.876;4.342;2024-03-22T04:49:37;34.07;;;16.90;;
17347;SDS011;8791;50.876;4.342;2024-03-22T04:52:04;27.87;;;17.57;;
17347;SDS011;8791;50.876;4.342;2024-03-22T04:54:30;36.90;;;17.77;;
17347;SDS011;8791;50.876;4.342;2024-03-22T04:56:57;35.77;;;17.97;;
17347;SDS011;8791;50.876;4.342;2024-03-22T04:59:25;31.50;;;17.73;;
17347;SDS011;8791;50.876;4.342;2024-03-22T05:01:53;32.47;;;17.77;;
17347;SDS011;8791;50.876;4.342;2024-03-22T05:04:18;33.90;;;19.33;;
17347;SDS011;8791;50.876;4.342;2024-03-22T05:06:45;31.83;;;17.57;;
17347;SDS011;8791;50.876;4.342;2024-03-22T05:09:11;37.23;;;17.63;;
17347;SDS011;8791;50.876;4.342;2024-03-22T05:11:38;31.20;;;16.90;;
17347;SDS011;8791;50.876;4.342;2024-03-22T05:14:04;35.07;;;18.33;;
17347;SDS011;8791;50.876;4.342;2024-03-22T05:16:32;36.47;;;17.97;;
17347;SDS011;8791;50.876;4.342;2024-03-22T05:18:58;32.70;;;17.00;;
17347;SDS011;8791;50.876;4.342;2024-03-22T05:21:25;31.40;;;16.97;;
17347;SDS011;8791;50.876;4.342;2024-03-22T05:23:51;36.70;;;19.20;;
17347;SDS011;8791;50.876;4.342;2024-03-22T05:26:18;31.70;;;17.77;;
17347;SDS011;8791;50.876;4.342;2024-03-22T05:28:45;33.97;;;18.37;;
17347;SDS011;8791;50.876;4.342;2024-03-22T05:31:12;32.40;;;19.23;;
17347;SDS011;8791;50.876;4.342;2024-03-22T05:33:40;35.97;;;19.97;;
17347;SDS011;8791;50.876;4.342;2024-03-22T05:36:07;33.83;;;19.70;;
17347;SDS011;8791;50.876;4.342;2024-03-22T05:38:33;38.27;;;19.70;;
17347;SDS011;8791;50.876;4.342;2024-03-22T05:41:03;33.47;;;19.13;;
17347;SDS011;8791;50.876;4.342;2024-03-22T05:43:29;34.30;;;20.90;;
17347;SDS011;8791;50.876;4.342;2024-03-22T05:45:56;38.43;;;20.23;;
17347;SDS011;8791;50.876;4.342;2024-03-22T05:48:22;42.47;;;19.73;;
17347;SDS011;8791;50.876;4.342;2024-03-22T05:50:50;34.90;;;19.70;;
17347;SDS011;8791;50.876;4.342;2024-03-22T05:53:17;29.73;;;17.93;;
17347;SDS011;8791;50.876;4.342;2024-03-22T05:55:44;32.10;;;17.87;;
17347;SDS011;8791;50.876;4.342;2024-03-22T05:58:10;28.17;;;17.37;;
17347;SDS011;8791;50.876;4.342;2024-03-22T06:00:37;34.37;;;17.47;;
17347;SDS011;8791;50.876;4.342;2024-03-22T06:03:04;28.00;;;17.80;;
17347;SDS011;8791;50.876;4.342;2024-03-22T06:05:31;32.23;;;17.70;;
17347;SDS011;8791;50.876;4.342;2024-03-22T06:08:00;29.37;;;17.67;;
17347;SDS011;8791;50.876;4.342;2024-03-22T06:10:28;30.37;;;17.33;;
17347;SDS011;8791;50.876;4.342;2024-03-22T06:12:54;33.83;;;18.93;;
17347;SDS011;8791;50.876;4.342;2024-03-22T06:15:21;28.33;;;16.77;;
17347;SDS011;8791;50.876;4.342;2024-03-22T06:17:47;33.40;;;17.53;;
17347;SDS011;8791;50.876;4.342;2024-03-22T06:20:15;30.40;;;18.97;;
17347;SDS011;8791;50.876;4.342;2024-03-22T06:22:41;26.67;;;17.07;;
17347;SDS011;8791;50.876;4.342;2024-03-22T06:25:09;28.07;;;17.30;;
17347;SDS011;8791;50.876;4.342;2024-03-22T06:27:35;29.43;;;18.23;;
17347;SDS011;8791;50.876;4.342;2024-03-22T06:30:02;29.50;;;17.00;;
17347;SDS011;8791;50.876;4.342;2024-03-22T06:32:28;27.63;;;16.77;;
17347;SDS011;8791;50.876;4.342;2024-03-22T06:34:55;26.97;;;16.57;;
17347;SDS011;8791;50.876;4.342;2024-03-22T06:37:22;27.30;;;15.90;;
17347;SDS011;8791;50.876;4.342;2024-03-22T06:39:49;26.07;;;15.73;;
17347;SDS011;8791;50.876;4.342;2024-03-22T06:42:16;24.27;;;14.60;;
17347;SDS011;8791;50.876;4.342;2024-03-22T06:44:43;24.03;;;13.70;;
17347;SDS011;8791;50.876;4.342;2024-03-22T06:47:09;30.57;;;15.20;;
17347;SDS011;8791;50.876;4.342;2024-03-22T06:49:36;27.77;;;15.37;;
17347;SDS011;8791;50.876;4.342;2024-03-22T06:52:01;24.03;;;14.60;;
17347;SDS011;8791;50.876;4.342;2024-03-22T06:54:28;26.93;;;14.57;;
17347;SDS011;8791;50.876;4.342;2024-03-22T06:56:54;21.80;;;13.53;;
17347;SDS011;8791;50.876;4.342;2024-03-22T06:59:23;25.83;;;15.43;;
17347;SDS011;8791;50.876;4.342;2024-03-22T07:01:49;25.77;;;13.93;;
17347;SDS011;8791;50.876;4.342;2024-03-22T07:04:16;20.30;;;13.90;;
17347;SDS011;8791;50.876;4.342;2024-03-22T07:06:42;30.70;;;14.23;;
17347;SDS011;8791;50.876;4.342;2024-03-22T07:09:08;20.73;;;13.37;;
17347;SDS011;8791;50.876;4.342;2024-03-22T07:11:34;22.83;;;13.07;;
17347;SDS011;8791;50.876;4.342;2024-03-22T07:14:01;22.73;;;12.83;;
17347;SDS011;8791;50.876;4.342;2024-03-22T07:16:28;22.17;;;13.17;;
17347;SDS011;8791;50.876;4.342;2024-03-22T07:18:55;18.97;;;11.47;;
17347;SDS011;8791;50.876;4.342;2024-03-22T07:21:21;21.37;;;11.07;;
17347;SDS011;8791;50.876;4.342;2024-03-22T07:23:48;21.57;;;11.20;;
17347;SDS011;8791;50.876;4.342;2024-03-22T07:26:14;25.47;;;11.27;;
17347;SDS011;8791;50.876;4.342;2024-03-22T07:28:41;17.47;;;10.40;;
17347;SDS011;8791;50.876;4.342;2024-03-22T07:31:07;18.50;;;11.00;;
17347;SDS011;8791;50.876;4.342;2024-03-22T07:33:35;19.57;;;11.70;;
17347;SDS011;8791;50.876;4.342;2024-03-22T07:36:01;18.60;;;11.60;;
17347;SDS011;8791;50.876;4.342;2024-03-22T07:38:28;16.00;;;11.07;;
17347;SDS011;8791;50.876;4.342;2024-03-22T07:40:54;18.83;;;11.63;;
17347;SDS011;8791;50.876;4.342;2024-03-22T07:43:21;19.10;;;11.40;;
17347;SDS011;8791;50.876;4.342;2024-03-22T07:45:47;16.90;;;11.27;;
17347;SDS011;8791;50.876;4.342;2024-03-22T07:48:14;19.83;;;11.87;;
17347;SDS011;8791;50.876;4.342;2024-03-22T07:50:42;19.03;;;11.10;;
17347;SDS011;8791;50.876;4.342;2024-03-22T07:53:09;18.47;;;11.10;;
17347;SDS011;8791;50.876;4.342;2024-03-22T07:55:35;13.97;;;10.33;;
17347;SDS011;8791;50.876;4.342;2024-03-22T07:58:02;18.00;;;10.50;;
17347;SDS011;8791;50.876;4.342;2024-03-22T08:00:29;22.37;;;9.27;;
17347;SDS011;8791;50.876;4.342;2024-03-22T08:02:56;13.73;;;9.57;;
17347;SDS011;8791;50.876;4.342;2024-03-22T08:05:22;11.63;;;9.30;;
17347;SDS011;8791;50.876;4.342;2024-03-22T08:07:50;12.33;;;9.43;;
17347;SDS011;8791;50.876;4.342;2024-03-22T08:10:16;15.67;;;9.53;;
17347;SDS011;8791;50.876;4.342;2024-03-22T08:12:43;14.10;;;9.83;;
17347;SDS011;8791;50.876;4.342;2024-03-22T08:15:09;13.10;;;9.70;;
17347;SDS011;8791;50.876;4.342;2024-03-22T08:17:36;18.77;;;9.73;;
17347;SDS011;8791;50.876;4.342;2024-03-22T08:20:03;15.10;;;9.50;;
17347;SDS011;8791;50.876;4.342;2024-03-22T08:22:30;14.10;;;9.07;;
17347;SDS011;8791;50.876;4.342;2024-03-22T08:24:58;12.63;;;9.13;;
17347;SDS011;8791;50.876;4.342;2024-03-22T08:27:27;18.03;;;9.97;;
17347;SDS011;8791;50.876;4.342;2024-03-22T08:29:53;14.73;;;9.53;;
17347;SDS011;8791;50.876;4.342;2024-03-22T08:32:20;15.93;;;9.47;;
17347;SDS011;8791;50.876;4.342;2024-03-22T08:34:46;17.97;;;10.60;;
17347;SDS011;8791;50.876;4.342;2024-03-22T08:37:12;20.30;;;11.63;;
17347;SDS011;8791;50.876;4.342;2024-03-22T08:39:38;18.80;;;10.50;;
17347;SDS011;8791;50.876;4.342;2024-03-22T08:42:07;20.00;;;11.70;;
17347;SDS011;8791;50.876;4.342;2024-03-22T08:44:34;18.97;;;11.73;;
17347;SDS011;8791;50.876;4.342;2024-03-22T08:47:01;20.77;;;13.33;;
17347;SDS011;8791;50.876;4.342;2024-03-22T08:49:27;27.67;;;13.37;;
17347;SDS011;8791;50.876;4.342;2024-03-22T08:51:55;21.53;;;13.97;;
17347;SDS011;8791;50.876;4.342;2024-03-22T08:54:21;20.30;;;13.50;;
17347;SDS011;8791;50.876;4.342;2024-03-22T08:56:48;23.63;;;14.40;;
17347;SDS011;8791;50.876;4.342;2024-03-22T08:59:15;29.50;;;14.60;;
17347;SDS011;8791;50.876;4.342;2024-03-22T09:01:42;27.93;;;15.00;;
17347;SDS011;8791;50.876;4.342;2024-03-22T09:04:08;24.83;;;15.90;;
17347;SDS011;8791;50.876;4.342;2024-03-22T09:06:35;27.33;;;16.40;;
17347;SDS011;8791;50.876;4.342;2024-03-22T09:09:01;24.17;;;15.33;;
17347;SDS011;8791;50.876;4.342;2024-03-22T09:11:28;27.07;;;15.50;;
17347;SDS011;8791;50.876;4.342;2024-03-22T09:13:55;25.77;;;15.83;;
17347;SDS011;8791;50.876;4.342;2024-03-22T09:16:24;22.17;;;15.03;;
17347;SDS011;8791;50.876;4.342;2024-03-22T09:18:50;21.27;;;14.13;;
17347;SDS011;8791;50.876;4.342;2024-03-22T09:21:17;24.17;;;14.83;;
17347;SDS011;8791;50.876;4.342;2024-03-22T09:23:43;22.97;;;12.57;;
17347;SDS011;8791;50.876;4.342;2024-03-22T09:26:10;22.80;;;14.27;;
17347;SDS011;8791;50.876;4.342;2024-03-22T09:28:36;25.43;;;13.50;;
17347;SDS011;8791;50.876;4.342;2024-03-22T09:31:03;19.17;;;14.17;;
17347;SDS011;8791;50.876;4.342;2024-03-22T09:33:32;23.17;;;14.13;;
17347;SDS011;8791;50.876;4.342;2024-03-22T09:35:59;25.87;;;14.27;;
17347;SDS011;8791;50.876;4.342;2024-03-22T09:38:25;27.33;;;14.33;;
17347;SDS011;8791;50.876;4.342;2024-03-22T09:40:51;31.07;;;15.80;;
17347;SDS011;8791;50.876;4.342;2024-03-22T09:43:19;25.40;;;14.43;;
17347;SDS011;8791;50.876;4.342;2024-03-22T09:45:47;35.67;;;15.07;;
17347;SDS011;8791;50.876;4.342;2024-03-22T09:48:14;24.53;;;15.13;;
17347;SDS011;8791;50.876;4.342;2024-03-22T09:50:44;25.23;;;15.30;;
17347;SDS011;8791;50.876;4.342;2024-03-22T09:53:11;28.90;;;14.77;;
17347;SDS011;8791;50.876;4.342;2024-03-22T09:55:39;25.83;;;15.33;;
17347;SDS011;8791;50.876;4.342;2024-03-22T09:58:08;30.13;;;15.23;;
17347;SDS011;8791;50.876;4.342;2024-03-22T10:00:35;27.93;;;14.50;;
17347;SDS011;8791;50.876;4.342;2024-03-22T10:03:01;24.57;;;15.03;;
17347;SDS011;8791;50.876;4.342;2024-03-22T10:05:30;26.73;;;14.17;;
17347;SDS011;8791;50.876;4.342;2024-03-22T10:07:57;27.13;;;14.23;;
17347;SDS011;8791;50.876;4.342;2024-03-22T10:10:24;20.33;;;14.03;;
17347;SDS011;8791;50.876;4.342;2024-03-22T10:12:50;29.67;;;15.07;;
17347;SDS011;8791;50.876;4.342;2024-03-22T10:15:18;25.27;;;14.67;;
17347;SDS011;8791;50.876;4.342;2024-03-22T10:17:45;31.47;;;15.67;;
17347;SDS011;8791;50.876;4.342;2024-03-22T10:20:12;23.77;;;14.87;;
17347;SDS011;8791;50.876;4.342;2024-03-22T10:22:41;24.00;;;14.90;;
17347;SDS011;8791;50.876;4.342;2024-03-22T10:25:09;23.63;;;13.80;;
17347;SDS011;8791;50.876;4.342;2024-03-22T10:27:37;26.30;;;15.27;;
17347;SDS011;8791;50.876;4.342;2024-03-22T10:30:06;30.73;;;14.13;;
17347;SDS011;8791;50.876;4.342;2024-03-22T10:32:34;24.37;;;14.33;;
17347;SDS011;8791;50.876;4.342;2024-03-22T10:35:02;35.83;;;15.03;;
17347;SDS011;8791;50.876;4.342;2024-03-22T10:37:31;32.90;;;15.13;;
17347;SDS011;8791;50.876;4.342;2024-03-22T10:39:59;26.20;;;15.07;;
17347;SDS011;8791;50.876;4.342;2024-03-22T10:42:34;22.13;;;14.27;;
17347;SDS011;8791;50.876;4.342;2024-03-22T10:45:01;22.00;;;14.97;;
17347;SDS011;8791;50.876;4.342;2024-03-22T10:47:29;22.80;;;14.80;;
17347;SDS011;8791;50.876;4.342;2024-03-22T10:50:03;22.77;;;14.27;;
17347;SDS011;8791;50.876;4.342;2024-03-22T10:52:31;27.07;;;15.47;;
17347;SDS011;8791;50.876;4.342;2024-03-22T10:55:02;23.63;;;14.33;;
17347;SDS011;8791;50.876;4.342;2024-03-22T10:57:30;23.50;;;14.93;;
17347;SDS011;8791;50.876;4.342;2024-03-22T11:00:00;20.47;;;13.37;;
17347;SDS011;8791;50.876;4.342;2024-03-22T11:02:27;30.70;;;14.97;;
17347;SDS011;8791;50.876;4.342;2024-03-22T11:04:56;24.30;;;14.10;;
17347;SDS011;8791;50.876;4.342;2024-03-22T11:07:22;21.23;;;13.20;;
17347;SDS011;8791;50.876;4.342;2024-03-22T11:09:53;20.90;;;11.27;;
17347;SDS011;8791;50.876;4.342;2024-03-22T11:12:21;20.13;;;12.63;;
17347;SDS011;8791;50.876;4.342;2024-03-22T11:14:51;24.63;;;12.27;;
17347;SDS011;8791;50.876;4.342;2024-03-22T11:17:18;22.27;;;12.53;;
17347;SDS011;8791;50.876;4.342;2024-03-22T11:19:46;24.13;;;13.50;;
17347;SDS011;8791;50.876;4.342;2024-03-22T11:22:12;21.03;;;14.67;;
17347;SDS011;8791;50.876;4.342;2024-03-22T11:24:39;26.77;;;14.63;;
17347;SDS011;8791;50.876;4.342;2024-03-22T11:27:06;23.23;;;13.57;;
17347;SDS011;8791;50.876;4.342;2024-03-22T11:29:35;25.17;;;11.93;;
17347;SDS011;8791;50.876;4.342;2024-03-22T11:32:04;17.53;;;10.17;;
17347;SDS011;8791;50.876;4.342;2024-03-22T11:34:38;15.70;;;9.33;;
17347;SDS011;8791;50.876;4.342;2024-03-22T11:37:06;13.73;;;9.17;;
17347;SDS011;8791;50.876;4.342;2024-03-22T11:39:35;20.23;;;9.90;;
17347;SDS011;8791;50.876;4.342;2024-03-22T11:42:01;17.13;;;9.10;;
17347;SDS011;8791;50.876;4.342;2024-03-22T11:44:29;15.57;;;9.87;;
17347;SDS011;8791;50.876;4.342;2024-03-22T11:46:56;27.50;;;9.53;;
17347;SDS011;8791;50.876;4.342;2024-03-22T11:49:23;13.47;;;8.13;;
17347;SDS011;8791;50.876;4.342;2024-03-22T11:51:52;17.17;;;9.57;;
17347;SDS011;8791;50.876;4.342;2024-03-22T11:54:20;19.20;;;9.60;;
17347;SDS011;8791;50.876;4.342;2024-03-22T11:56:46;19.77;;;10.30;;
17347;SDS011;8791;50.876;4.342;2024-03-22T11:59:13;18.63;;;8.83;;
17347;SDS011;8791;50.876;4.342;2024-03-22T12:01:40;13.93;;;9.17;;
17347;SDS011;8791;50.876;4.342;2024-03-22T12:04:07;17.20;;;9.67;;
17347;SDS011;8791;50.876;4.342;2024-03-22T12:06:40;20.67;;;9.17;;
17347;SDS011;8791;50.876;4.342;2024-03-22T12:09:09;11.63;;;8.07;;
17347;SDS011;8791;50.876;4.342;2024-03-22T12:11:37;15.80;;;9.33;;
17347;SDS011;8791;50.876;4.342;2024-03-22T12:14:05;22.43;;;9.13;;
17347;SDS011;8791;50.876;4.342;2024-03-22T12:16:31;13.70;;;8.37;;
17347;SDS011;8791;50.876;4.342;2024-03-22T12:18:58;14.47;;;8.23;;
17347;SDS011;8791;50.876;4.342;2024-03-22T12:21:24;15.40;;;8.67;;
17347;SDS011;8791;50.876;4.342;2024-03-22T12:23:51;14.97;;;8.13;;
17347;SDS011;8791;50.876;4.342;2024-03-22T12:26:20;15.67;;;7.93;;
17347;SDS011;8791;50.876;4.342;2024-03-22T12:28:46;19.33;;;7.93;;
17347;SDS011;8791;50.876;4.342;2024-03-22T12:31:12;19.57;;;8.20;;
17347;SDS011;8791;50.876;4.342;2024-03-22T12:33:39;20.27;;;8.00;;
17347;SDS011;8791;50.876;4.342;2024-03-22T12:36:05;19.87;;;8.57;;
17347;SDS011;8791;50.876;4.342;2024-03-22T12:38:32;12.93;;;8.17;;
17347;SDS011;8791;50.876;4.342;2024-03-22T12:40:58;17.20;;;7.60;;
17347;SDS011;8791;50.876;4.342;2024-03-22T12:43:27;15.30;;;7.43;;
17347;SDS011;8791;50.876;4.342;2024-03-22T12:45:53;15.27;;;8.10;;
17347;SDS011;8791;50.876;4.342;2024-03-22T12:48:20;14.00;;;8.07;;
17347;SDS011;8791;50.876;4.342;2024-03-22T12:50:45;17.03;;;8.70;;
17347;SDS011;8791;50.876;4.342;2024-03-22T12:53:12;14.93;;;8.30;;
17347;SDS011;8791;50.876;4.342;2024-03-22T12:55:39;18.40;;;8.93;;
17347;SDS011;8791;50.876;4.342;2024-03-22T12:58:05;19.77;;;8.70;;
17347;SDS011;8791;50.876;4.342;2024-03-22T13:00:33;15.00;;;8.23;;
17347;SDS011;8791;50.876;4.342;2024-03-22T13:03:00;18.03;;;7.23;;
17347;SDS011;8791;50.876;4.342;2024-03-22T13:05:25;15.93;;;7.63;;
17347;SDS011;8791;50.876;4.342;2024-03-22T13:07:52;18.80;;;8.30;;
17347;SDS011;8791;50.876;4.342;2024-03-22T13:10:19;19.23;;;8.20;;
17347;SDS011;8791;50.876;4.342;2024-03-22T13:12:45;16.83;;;7.70;;
17347;SDS011;8791;50.876;4.342;2024-03-22T13:15:12;17.93;;;8.03;;
17347;SDS011;8791;50.876;4.342;2024-03-22T13:17:41;10.97;;;7.53;;
17347;SDS011;8791;50.876;4.342;2024-03-22T13:20:07;15.53;;;7.63;;
17347;SDS011;8791;50.876;4.342;2024-03-22T13:22:35;19.57;;;7.43;;
17347;SDS011;8791;50.876;4.342;2024-03-22T13:25:02;15.77;;;7.67;;
17347;SDS011;8791;50.876;4.342;2024-03-22T13:27:32;16.13;;;8.10;;
17347;SDS011;8791;50.876;4.342;2024-03-22T13:29:59;15.73;;;7.80;;
17347;SDS011;8791;50.876;4.342;2024-03-22T13:32:26;17.97;;;7.50;;
17347;SDS011;8791;50.876;4.342;2024-03-22T13:34:53;27.83;;;7.77;;
17347;SDS011;8791;50.876;4.342;2024-03-22T13:37:20;12.97;;;7.43;;
17347;SDS011;8791;50.876;4.342;2024-03-22T13:39:47;15.10;;;8.00;;
17347;SDS011;8791;50.876;4.342;2024-03-22T13:42:15;16.03;;;7.43;;
17347;SDS011;8791;50.876;4.342;2024-03-22T13:44:41;16.47;;;7.53;;
17347;SDS011;8791;50.876;4.342;2024-03-22T13:47:08;18.27;;;7.70;;
17347;SDS011;8791;50.876;4.342;2024-03-22T13:49:34;21.83;;;7.23;;
17347;SDS011;8791;50.876;4.342;2024-03-22T13:52:03;14.67;;;7.60;;
17347;SDS011;8791;50.876;4.342;2024-03-22T13:54:29;14.67;;;6.93;;
17347;SDS011;8791;50.876;4.342;2024-03-22T13:56:57;18.67;;;7.10;;
17347;SDS011;8791;50.876;4.342;2024-03-22T13:59:23;13.93;;;8.10;;
17347;SDS011;8791;50.876;4.342;2024-03-22T14:01:49;19.33;;;9.03;;
17347;SDS011;8791;50.876;4.342;2024-03-22T14:04:15;49.97;;;18.07;;
17347;SDS011;8791;50.876;4.342;2024-03-22T14:06:44;24.80;;;10.43;;
17347;SDS011;8791;50.876;4.342;2024-03-22T14:09:11;68.23;;;11.93;;
17347;SDS011;8791;50.876;4.342;2024-03-22T14:11:40;15.23;;;6.63;;
17347;SDS011;8791;50.876;4.342;2024-03-22T14:14:07;11.87;;;7.13;;
17347;SDS011;8791;50.876;4.342;2024-03-22T14:16:37;21.77;;;7.73;;
17347;SDS011;8791;50.876;4.342;2024-03-22T14:19:03;16.87;;;7.47;;
17347;SDS011;8791;50.876;4.342;2024-03-22T14:21:30;15.23;;;7.07;;
17347;SDS011;8791;50.876;4.342;2024-03-22T14:23:56;17.03;;;8.10;;
17347;SDS011;8791;50.876;4.342;2024-03-22T14:26:24;14.60;;;6.63;;
17347;SDS011;8791;50.876;4.342;2024-03-22T14:28:50;15.00;;;6.90;;
17347;SDS011;8791;50.876;4.342;2024-03-22T14:31:18;11.63;;;7.97;;
17347;SDS011;8791;50.876;4.342;2024-03-22T14:33:44;16.53;;;8.07;;
17347;SDS011;8791;50.876;4.342;2024-03-22T14:36:12;17.37;;;8.30;;